createdAt,value
2019-04-26T00:00:11.967Z,47.409323
2019-04-26T00:01:15.995Z,47.409307
2019-04-26T00:02:19.355Z,47.409394
2019-04-26T00:03:22.295Z,47.409369
2019-04-26T00:04:25.378Z,47.409388
2019-04-26T00:05:34.408Z,47.409378
2019-04-26T00:06:36.310Z,47.409368
2019-04-26T00:07:39.317Z,47.409356
2019-04-26T00:08:42.281Z,47.409318
2019-04-26T00:09:45.301Z,47.409280
2019-04-26T00:10:48.307Z,47.409342
2019-04-26T00:11:51.334Z,47.409340
2019-04-26T00:12:54.282Z,47.409337
2019-04-26T00:13:57.291Z,47.409307
2019-04-26T00:15:00.282Z,47.409361
2019-04-26T00:16:03.372Z,47.409336
2019-04-26T00:17:06.344Z,47.409342
2019-04-26T00:18:10.222Z,47.409296
2019-04-26T00:19:14.328Z,47.409243
2019-04-26T00:20:17.292Z,47.409316
2019-04-26T00:21:20.351Z,47.409345
2019-04-26T00:22:23.294Z,47.409379
2019-04-26T00:23:26.303Z,47.409380
2019-04-26T00:24:29.268Z,47.409405
2019-04-26T00:25:32.295Z,47.409362
2019-04-26T00:26:34.341Z,47.409354
2019-04-26T00:27:37.306Z,47.409314
2019-04-26T00:28:40.324Z,47.409334
2019-04-26T00:29:43.316Z,47.409395
2019-04-26T00:30:46.358Z,47.409419
2019-04-26T00:31:49.332Z,47.409415
2019-04-26T00:32:52.297Z,47.409420
2019-04-26T00:33:54.291Z,47.409408
2019-04-26T00:34:57.281Z,47.409395
2019-04-26T00:36:00.344Z,47.409407
2019-04-26T00:37:03.305Z,47.409376
2019-04-26T00:38:06.335Z,47.409319
2019-04-26T00:39:09.262Z,47.409369
2019-04-26T00:40:13.239Z,47.409337
2019-04-26T00:41:18.407Z,47.409446
2019-04-26T00:42:21.363Z,47.409440
2019-04-26T00:43:24.300Z,47.409441
2019-04-26T00:44:27.318Z,47.409442
2019-04-26T00:45:30.284Z,47.409445
2019-04-26T00:46:33.306Z,47.409392
2019-04-26T00:47:36.339Z,47.409455
2019-04-26T00:48:39.287Z,47.409467
2019-04-26T00:49:43.751Z,47.409450
2019-04-26T00:50:47.279Z,47.409506
2019-04-26T00:51:50.306Z,47.409447
2019-04-26T00:52:53.419Z,47.409505
2019-04-26T00:53:56.280Z,47.409458
2019-04-26T00:54:59.294Z,47.409454
2019-04-26T00:56:02.282Z,47.409431
2019-04-26T00:57:05.335Z,47.409364
2019-04-26T00:58:08.309Z,47.409416
2019-04-26T00:59:11.311Z,47.409411
2019-04-26T01:00:15.391Z,47.409428
2019-04-26T01:01:19.327Z,47.409443
2019-04-26T01:02:22.765Z,47.409481
2019-04-26T01:03:26.334Z,47.409485
2019-04-26T01:04:29.333Z,47.409467
2019-04-26T01:05:32.272Z,47.409419
2019-04-26T01:06:35.333Z,47.409416
2019-04-26T01:07:38.351Z,47.409393
2019-04-26T01:08:41.333Z,47.409424
2019-04-26T01:09:44.313Z,47.409462
2019-04-26T01:10:47.318Z,47.409460
2019-04-26T01:11:50.295Z,47.409510
2019-04-26T01:12:53.339Z,47.409456
2019-04-26T01:13:56.275Z,47.409412
2019-04-26T01:14:59.326Z,47.409407
2019-04-26T01:16:02.277Z,47.409380
2019-04-26T01:17:05.295Z,47.409374
2019-04-26T01:18:08.342Z,47.409387
2019-04-26T01:19:11.290Z,47.409461
2019-04-26T01:20:14.353Z,47.409442
2019-04-26T01:21:18.434Z,47.409388
2019-04-26T01:22:21.317Z,47.409329
2019-04-26T01:23:25.090Z,47.409310
2019-04-26T01:24:28.335Z,47.409320
2019-04-26T01:25:31.286Z,47.409396
2019-04-26T01:26:34.270Z,47.409427
2019-04-26T01:27:37.305Z,47.409366
2019-04-26T01:28:40.291Z,47.409403
2019-04-26T01:29:43.323Z,47.409348
2019-04-26T01:30:46.292Z,47.409418
2019-04-26T01:31:49.294Z,47.409382
2019-04-26T01:32:52.334Z,47.409315
2019-04-26T01:33:55.290Z,47.409388
2019-04-26T01:34:58.318Z,47.409194
2019-04-26T01:36:12.105Z,47.409288
2019-04-26T01:37:08.285Z,47.409427
2019-04-26T01:38:11.329Z,47.409375
2019-04-26T01:39:14.286Z,47.409314
2019-04-26T01:40:17.310Z,47.409223
2019-04-26T01:41:21.289Z,47.409217
2019-04-26T01:42:26.313Z,47.409348
2019-04-26T01:43:29.329Z,47.409416
2019-04-26T01:44:34.304Z,47.409473
2019-04-26T01:45:37.303Z,47.409476
2019-04-26T01:46:40.297Z,47.409503
2019-04-26T01:47:42.274Z,47.409453
2019-04-26T01:48:45.337Z,47.409516
2019-04-26T01:49:48.272Z,47.409345
2019-04-26T01:50:51.305Z,47.409300
2019-04-26T01:51:54.295Z,47.409408
2019-04-26T01:52:57.306Z,47.409515
2019-04-26T01:54:00.308Z,47.409428
2019-04-26T01:55:03.312Z,47.409459
2019-04-26T01:56:06.284Z,47.409483
2019-04-26T01:57:09.300Z,47.409416
2019-04-26T01:58:12.307Z,47.409309
2019-04-26T01:59:15.324Z,47.409314
2019-04-26T02:00:18.336Z,47.409338
2019-04-26T02:01:22.321Z,47.409292
2019-04-26T02:02:26.314Z,47.409291
2019-04-26T02:03:29.847Z,47.409322
2019-04-26T02:04:33.347Z,47.409338
2019-04-26T02:05:36.266Z,47.409390
2019-04-26T02:06:39.302Z,47.409328
2019-04-26T02:07:42.306Z,47.409318
2019-04-26T02:08:45.346Z,47.409349
2019-04-26T02:09:48.333Z,47.409375
2019-04-26T02:10:51.344Z,47.409446
2019-04-26T02:11:54.322Z,47.409394
2019-04-26T02:12:57.293Z,47.409414
2019-04-26T02:14:00.311Z,47.409342
2019-04-26T02:15:03.318Z,47.409407
2019-04-26T02:16:06.306Z,47.409385
2019-04-26T02:17:09.290Z,47.409436
2019-04-26T02:18:12.282Z,47.409394
2019-04-26T02:19:15.307Z,47.409376
2019-04-26T02:20:18.355Z,47.409365
2019-04-26T02:21:21.281Z,47.409382
2019-04-26T02:22:24.493Z,47.409371
2019-04-26T02:23:27.922Z,47.409378
2019-04-26T02:24:32.163Z,47.409371
2019-04-26T02:25:35.301Z,47.409388
2019-04-26T02:26:38.289Z,47.409385
2019-04-26T02:27:41.327Z,47.409386
2019-04-26T02:28:44.278Z,47.409413
2019-04-26T02:29:47.361Z,47.409352
2019-04-26T02:30:50.305Z,47.409338
2019-04-26T02:31:53.432Z,47.409379
2019-04-26T02:32:56.337Z,47.409374
2019-04-26T02:33:59.303Z,47.409406
2019-04-26T02:35:02.360Z,47.409380
2019-04-26T02:36:05.293Z,47.409397
2019-04-26T02:37:08.317Z,47.409406
2019-04-26T02:38:11.349Z,47.409415
2019-04-26T02:39:14.291Z,47.409395
2019-04-26T02:40:17.439Z,47.409319
2019-04-26T02:41:20.286Z,47.409324
2019-04-26T02:42:23.316Z,47.409331
2019-04-26T02:43:28.094Z,47.409360
2019-04-26T02:44:34.481Z,47.409390
2019-04-26T02:45:38.314Z,47.409453
2019-04-26T02:46:41.286Z,47.409390
2019-04-26T02:47:44.311Z,47.409354
2019-04-26T02:48:47.308Z,47.409395
2019-04-26T02:49:50.338Z,47.409436
2019-04-26T02:50:53.384Z,47.409405
2019-04-26T02:51:56.356Z,47.409421
2019-04-26T02:52:59.271Z,47.409392
2019-04-26T02:54:02.364Z,47.409346
2019-04-26T02:55:05.301Z,47.409384
2019-04-26T02:56:08.371Z,47.409357
2019-04-26T02:57:11.295Z,47.409367
2019-04-26T02:58:14.310Z,47.409378
2019-04-26T02:59:16.315Z,47.409406
2019-04-26T03:00:19.291Z,47.409470
2019-04-26T03:01:22.333Z,47.409407
2019-04-26T03:02:25.311Z,47.409431
2019-04-26T03:03:29.837Z,47.409411
2019-04-26T03:04:34.625Z,47.409382
2019-04-26T03:05:39.685Z,47.409411
2019-04-26T03:06:43.318Z,47.409441
2019-04-26T03:07:46.288Z,47.409413
2019-04-26T03:08:49.332Z,47.409398
2019-04-26T03:09:52.309Z,47.409449
2019-04-26T03:10:54.312Z,47.409427
2019-04-26T03:11:57.325Z,47.409502
2019-04-26T03:13:00.323Z,47.409505
2019-04-26T03:14:03.294Z,47.409499
2019-04-26T03:15:13.715Z,47.409439
2019-04-26T03:16:14.305Z,47.409451
2019-04-26T03:17:17.341Z,47.409413
2019-04-26T03:18:20.337Z,47.409412
2019-04-26T03:19:23.301Z,47.409483
2019-04-26T03:20:26.307Z,47.409403
2019-04-26T03:21:31.979Z,47.409395
2019-04-26T03:22:36.670Z,47.409393
2019-04-26T03:23:52.828Z,47.409380
2019-04-26T03:24:48.752Z,47.409394
2019-04-26T03:25:52.313Z,47.409360
2019-04-26T03:26:55.341Z,47.409410
2019-04-26T03:27:58.305Z,47.409413
2019-04-26T03:29:01.291Z,47.409422
2019-04-26T03:30:18.663Z,47.409359
2019-04-26T03:31:12.279Z,47.409398
2019-04-26T03:32:16.583Z,47.409484
2019-04-26T03:33:20.406Z,47.409399
2019-04-26T03:34:23.289Z,47.409278
2019-04-26T03:35:26.291Z,47.409348
2019-04-26T03:36:29.329Z,47.409399
2019-04-26T03:37:34.146Z,47.409383
2019-04-26T03:38:39.681Z,47.409374
2019-04-26T03:39:44.376Z,47.409329
2019-04-26T03:40:47.305Z,47.409344
2019-04-26T03:41:50.299Z,47.409386
2019-04-26T03:42:53.297Z,47.409399
2019-04-26T03:43:56.321Z,47.409398
2019-04-26T03:44:59.380Z,47.409436
2019-04-26T03:46:02.318Z,47.409352
2019-04-26T03:47:05.291Z,47.409352
2019-04-26T03:48:08.329Z,47.409348
2019-04-26T03:49:11.274Z,47.409345
2019-04-26T03:50:14.306Z,47.409380
2019-04-26T03:51:17.313Z,47.409334
2019-04-26T03:52:20.290Z,47.409339
2019-04-26T03:53:23.356Z,47.409388
2019-04-26T03:54:26.271Z,47.409344
2019-04-26T03:55:29.319Z,47.409438
2019-04-26T03:56:32.314Z,47.409382
2019-04-26T03:57:36.909Z,47.409337
2019-04-26T03:58:41.924Z,47.409356
2019-04-26T03:59:46.320Z,47.409394
2019-04-26T04:00:49.343Z,47.409478
2019-04-26T04:01:52.298Z,47.409384
2019-04-26T04:02:55.357Z,47.409388
2019-04-26T04:03:58.267Z,47.409353
2019-04-26T04:05:01.321Z,47.409361
2019-04-26T04:06:04.281Z,47.409439
2019-04-26T04:07:07.323Z,47.409322
2019-04-26T04:08:10.334Z,47.409405
2019-04-26T04:09:13.317Z,47.409398
2019-04-26T04:10:16.288Z,47.409503
2019-04-26T04:11:19.265Z,47.409496
2019-04-26T04:12:22.410Z,47.409331
2019-04-26T04:13:25.330Z,47.409359
2019-04-26T04:14:28.376Z,47.409487
2019-04-26T04:15:31.328Z,47.409638
2019-04-26T04:16:34.325Z,47.409481
2019-04-26T04:17:39.010Z,47.409406
2019-04-26T04:18:45.435Z,47.409397
2019-04-26T04:19:48.297Z,47.409384
2019-04-26T04:20:51.340Z,47.409381
2019-04-26T04:21:54.372Z,47.409438
2019-04-26T04:22:57.280Z,47.409341
2019-04-26T04:24:00.392Z,47.409214
2019-04-26T04:25:02.323Z,47.409266
2019-04-26T04:26:05.299Z,47.409281
2019-04-26T04:27:08.320Z,47.409482
2019-04-26T04:28:11.312Z,47.409492
2019-04-26T04:29:14.366Z,47.409334
2019-04-26T04:30:17.349Z,47.409224
2019-04-26T04:31:20.328Z,47.409146
2019-04-26T04:32:25.330Z,47.409303
2019-04-26T04:33:28.306Z,47.409300
2019-04-26T04:34:31.295Z,47.409374
2019-04-26T04:35:34.309Z,47.409268
2019-04-26T04:36:37.291Z,47.409251
2019-04-26T04:37:54.533Z,47.409267
2019-04-26T04:38:49.529Z,47.409394
2019-04-26T04:39:53.484Z,47.409619
2019-04-26T04:40:56.349Z,47.409456
2019-04-26T04:41:59.288Z,47.409427
2019-04-26T04:43:02.468Z,47.409432
2019-04-26T04:44:05.360Z,47.409405
2019-04-26T04:45:08.318Z,47.409608
2019-04-26T04:46:11.364Z,47.409504
2019-04-26T04:47:23.792Z,47.409604
2019-04-26T04:48:22.314Z,47.409554
2019-04-26T04:49:25.350Z,47.409546
2019-04-26T04:50:27.301Z,47.409472
2019-04-26T04:51:30.341Z,47.409329
2019-04-26T04:52:33.323Z,47.409293
2019-04-26T04:53:36.300Z,47.409382
2019-04-26T04:54:39.354Z,47.409359
2019-04-26T04:55:43.510Z,47.409502
2019-04-26T04:56:47.854Z,47.409480
2019-04-26T04:57:50.394Z,47.409498
2019-04-26T04:58:53.329Z,47.409587
2019-04-26T04:59:56.373Z,47.409471
2019-04-26T05:00:59.308Z,47.409560
2019-04-26T05:02:02.338Z,47.409466
2019-04-26T05:03:05.280Z,47.409557
2019-04-26T05:04:08.301Z,47.409722
2019-04-26T05:05:11.319Z,47.409537
2019-04-26T05:06:14.320Z,47.409458
2019-04-26T05:07:17.345Z,47.409511
2019-04-26T05:08:20.310Z,47.409458
2019-04-26T05:09:23.263Z,47.409424
2019-04-26T05:10:26.330Z,47.409373
2019-04-26T05:11:29.269Z,47.409354
2019-04-26T05:12:32.315Z,47.409410
2019-04-26T05:13:35.296Z,47.409319
2019-04-26T05:14:38.313Z,47.409276
2019-04-26T05:15:41.306Z,47.409441
2019-04-26T05:16:44.986Z,47.409279
2019-04-26T05:17:49.476Z,47.409345
2019-04-26T05:18:51.334Z,47.409435
2019-04-26T05:19:54.872Z,47.409431
2019-04-26T05:20:58.304Z,47.409334
2019-04-26T05:22:01.322Z,47.409410
2019-04-26T05:23:04.389Z,47.409406
2019-04-26T05:24:07.269Z,47.409432
2019-04-26T05:25:10.323Z,47.409451
2019-04-26T05:26:13.369Z,47.409410
2019-04-26T05:27:16.351Z,47.409454
2019-04-26T05:28:19.287Z,47.409480
2019-04-26T05:29:21.335Z,47.409452
2019-04-26T05:30:24.393Z,47.409400
2019-04-26T05:31:27.324Z,47.409452
2019-04-26T05:32:30.271Z,47.409420
2019-04-26T05:33:33.290Z,47.409328
2019-04-26T05:34:36.326Z,47.409494
2019-04-26T05:35:39.355Z,47.409337
2019-04-26T05:36:42.343Z,47.409443
2019-04-26T05:37:45.302Z,47.409303
2019-04-26T05:38:49.248Z,47.409302
2019-04-26T05:39:53.202Z,47.409372
2019-04-26T05:40:56.345Z,47.409405
2019-04-26T05:41:59.266Z,47.409420
2019-04-26T05:43:02.307Z,47.409289
2019-04-26T05:44:05.320Z,47.409415
2019-04-26T05:45:08.287Z,47.409404
2019-04-26T05:46:11.309Z,47.409402
2019-04-26T05:47:14.291Z,47.409399
2019-04-26T05:48:17.310Z,47.409436
2019-04-26T05:49:20.319Z,47.409389
2019-04-26T05:50:23.348Z,47.409442
2019-04-26T05:51:26.304Z,47.409412
2019-04-26T05:52:29.318Z,47.409480
2019-04-26T05:53:32.283Z,47.409416
2019-04-26T05:54:35.267Z,47.409386
2019-04-26T05:55:38.351Z,47.409405
2019-04-26T05:56:41.339Z,47.409455
2019-04-26T05:57:44.318Z,47.409435
2019-04-26T05:58:47.300Z,47.409461
2019-04-26T05:59:50.626Z,47.409469
2019-04-26T06:00:53.925Z,47.409396
2019-04-26T06:01:57.312Z,47.409478
2019-04-26T06:03:01.247Z,47.409458
2019-04-26T06:04:04.310Z,47.409382
2019-04-26T06:05:07.374Z,47.409457
2019-04-26T06:06:10.346Z,47.409458
2019-04-26T06:07:13.297Z,47.409394
2019-04-26T06:08:16.303Z,47.409325
2019-04-26T06:09:19.301Z,47.409301
2019-04-26T06:10:21.346Z,47.409654
2019-04-26T06:11:24.334Z,47.409595
2019-04-26T06:12:27.306Z,47.409494
2019-04-26T06:13:30.319Z,47.409599
2019-04-26T06:14:33.310Z,47.409343
2019-04-26T06:15:36.334Z,47.409432
2019-04-26T06:16:39.308Z,47.409465
2019-04-26T06:17:42.297Z,47.409362
2019-04-26T06:18:45.303Z,47.409466
2019-04-26T06:19:48.359Z,47.409401
2019-04-26T06:20:51.192Z,47.409359
2019-04-26T06:21:55.873Z,47.409381
2019-04-26T06:23:00.478Z,47.409417
2019-04-26T06:24:03.344Z,47.409375
2019-04-26T06:25:06.294Z,47.409422
2019-04-26T06:26:09.375Z,47.409376
2019-04-26T06:27:14.288Z,47.409379
2019-04-26T06:28:17.327Z,47.409418
2019-04-26T06:29:19.311Z,47.409410
2019-04-26T06:30:23.387Z,47.409403
2019-04-26T06:31:25.323Z,47.409446
2019-04-26T06:32:28.391Z,47.409454
2019-04-26T06:33:31.264Z,47.409434
2019-04-26T06:34:34.277Z,47.409409
2019-04-26T06:35:37.365Z,47.409447
2019-04-26T06:36:40.270Z,47.409481
2019-04-26T06:37:43.296Z,47.409427
2019-04-26T06:38:45.326Z,47.409480
2019-04-26T06:39:47.536Z,47.409437
2019-04-26T06:40:49.636Z,47.409471
2019-04-26T06:41:52.341Z,47.409421
2019-04-26T06:42:56.187Z,47.409387
2019-04-26T06:44:00.356Z,47.409419
2019-04-26T06:45:03.307Z,47.409402
2019-04-26T06:46:06.299Z,47.409357
2019-04-26T06:47:09.324Z,47.409350
2019-04-26T06:48:12.335Z,47.409348
2019-04-26T06:49:15.315Z,47.409379
2019-04-26T06:50:18.303Z,47.409425
2019-04-26T06:51:24.546Z,47.409445
2019-04-26T06:52:28.316Z,47.409472
2019-04-26T06:53:31.295Z,47.409401
2019-04-26T06:54:34.303Z,47.409386
2019-04-26T06:55:37.282Z,47.409487
2019-04-26T06:56:40.367Z,47.409406
2019-04-26T06:57:43.269Z,47.409232
2019-04-26T06:58:46.314Z,47.409457
2019-04-26T06:59:49.330Z,47.409413
2019-04-26T07:00:54.362Z,47.409412
2019-04-26T07:01:57.979Z,47.409442
2019-04-26T07:03:03.554Z,47.409368
2019-04-26T07:04:07.311Z,47.409313
2019-04-26T07:05:10.380Z,47.409368
2019-04-26T07:06:13.319Z,47.409257
2019-04-26T07:07:16.336Z,47.409408
2019-04-26T07:08:19.320Z,47.409377
2019-04-26T07:09:22.310Z,47.409371
2019-04-26T07:10:25.311Z,47.409369
2019-04-26T07:11:28.343Z,47.409403
2019-04-26T07:12:30.360Z,47.409370
2019-04-26T07:13:33.279Z,47.409446
2019-04-26T07:14:36.328Z,47.409465
2019-04-26T07:15:39.293Z,47.409453
2019-04-26T07:16:42.278Z,47.409626
2019-04-26T07:17:45.305Z,47.409644
2019-04-26T07:18:48.303Z,47.409656
2019-04-26T07:19:51.287Z,47.409592
2019-04-26T07:20:54.315Z,47.409518
2019-04-26T07:21:56.374Z,47.409706
2019-04-26T07:22:59.382Z,47.409651
2019-04-26T07:24:02.889Z,47.409486
2019-04-26T07:25:07.369Z,47.409603
2019-04-26T07:26:10.334Z,47.409645
2019-04-26T07:27:13.326Z,47.409550
2019-04-26T07:28:16.344Z,47.409383
2019-04-26T07:29:19.348Z,47.409645
2019-04-26T07:30:22.356Z,47.409493
2019-04-26T07:31:26.395Z,47.409463
2019-04-26T07:32:29.309Z,47.409468
2019-04-26T07:33:32.353Z,47.409312
2019-04-26T07:34:35.302Z,47.409479
2019-04-26T07:35:38.304Z,47.409510
2019-04-26T07:36:41.299Z,47.409461
2019-04-26T07:37:44.326Z,47.409364
2019-04-26T07:38:47.334Z,47.409623
2019-04-26T07:39:50.290Z,47.409511
2019-04-26T07:40:53.338Z,47.409592
2019-04-26T07:41:57.298Z,47.409537
2019-04-26T07:42:59.414Z,47.409469
2019-04-26T07:44:03.547Z,47.409453
2019-04-26T07:45:07.544Z,47.409317
2019-04-26T07:46:10.664Z,47.409476
2019-04-26T07:47:15.347Z,47.409326
2019-04-26T07:48:18.338Z,47.409445
2019-04-26T07:49:21.303Z,47.409519
2019-04-26T07:50:24.331Z,47.409483
2019-04-26T07:51:27.284Z,47.409550
2019-04-26T07:52:30.355Z,47.409514
2019-04-26T07:53:33.310Z,47.409469
2019-04-26T07:54:36.309Z,47.409503
2019-04-26T07:55:39.301Z,47.409492
2019-04-26T07:56:42.313Z,47.409557
2019-04-26T07:57:45.355Z,47.409540
2019-04-26T07:58:48.301Z,47.409508
2019-04-26T07:59:51.358Z,47.409535
2019-04-26T08:00:54.282Z,47.409538
2019-04-26T08:01:57.324Z,47.409545
2019-04-26T08:03:00.331Z,47.409512
2019-04-26T08:04:03.988Z,47.409523
2019-04-26T08:05:09.417Z,47.409643
2019-04-26T08:06:12.303Z,47.409623
2019-04-26T08:07:15.407Z,47.409553
2019-04-26T08:08:18.368Z,47.409476
2019-04-26T08:09:26.996Z,47.409635
2019-04-26T08:10:29.285Z,47.409503
2019-04-26T08:11:32.320Z,47.409590
2019-04-26T08:12:35.308Z,47.409568
2019-04-26T08:13:38.342Z,47.409556
2019-04-26T08:14:41.276Z,47.409516
2019-04-26T08:15:44.311Z,47.409362
2019-04-26T08:16:47.281Z,47.409562
2019-04-26T08:17:50.350Z,47.409522
2019-04-26T08:18:52.386Z,47.409472
2019-04-26T08:19:57.526Z,47.409448
2019-04-26T08:21:02.572Z,47.409352
2019-04-26T08:22:17.879Z,47.409304
2019-04-26T08:23:38.107Z,47.409452
2019-04-26T08:24:27.865Z,47.409413
2019-04-26T08:25:31.325Z,47.409429
2019-04-26T08:26:34.306Z,47.409382
2019-04-26T08:27:37.344Z,47.409340
2019-04-26T08:28:40.304Z,47.409302
2019-04-26T08:29:43.321Z,47.409281
2019-04-26T08:30:46.355Z,47.409351
2019-04-26T08:31:49.288Z,47.409347
2019-04-26T08:32:52.336Z,47.409278
2019-04-26T08:33:56.349Z,47.409320
2019-04-26T08:35:02.305Z,47.409224
2019-04-26T08:36:08.724Z,47.409272
2019-04-26T08:37:12.663Z,47.409323
2019-04-26T08:38:21.968Z,47.409371
2019-04-26T08:39:29.622Z,47.409410
2019-04-26T08:40:31.509Z,47.409397
2019-04-26T08:41:38.986Z,47.409406
2019-04-26T08:42:42.337Z,47.409401
2019-04-26T08:43:45.281Z,47.409405
2019-04-26T08:44:50.909Z,47.409400
2019-04-26T08:46:02.816Z,47.409347
2019-04-26T08:47:02.324Z,47.409349
2019-04-26T08:48:05.325Z,47.409360
2019-04-26T08:49:09.543Z,47.409288
2019-04-26T08:50:13.697Z,47.409318
2019-04-26T08:51:20.491Z,47.409370
2019-04-26T08:52:25.285Z,47.409376
2019-04-26T08:53:27.380Z,47.409410
2019-04-26T08:54:32.565Z,47.409398
2019-04-26T08:55:36.351Z,47.409392
2019-04-26T08:56:39.312Z,47.409343
2019-04-26T08:57:42.272Z,47.409390
2019-04-26T08:58:45.340Z,47.409413
2019-04-26T08:59:48.295Z,47.409372
2019-04-26T09:00:51.347Z,47.409368
2019-04-26T09:01:54.330Z,47.409295
2019-04-26T09:02:57.336Z,47.409380
2019-04-26T09:04:00.303Z,47.409400
2019-04-26T09:05:03.347Z,47.409297
2019-04-26T09:06:06.317Z,47.409337
2019-04-26T09:07:09.321Z,47.409326
2019-04-26T09:08:12.312Z,47.409359
2019-04-26T09:09:18.184Z,47.409362
2019-04-26T09:10:23.340Z,47.409422
2019-04-26T09:11:33.472Z,47.409400
2019-04-26T09:12:34.312Z,47.409419
2019-04-26T09:13:37.294Z,47.409287
2019-04-26T09:14:40.357Z,47.409322
2019-04-26T09:15:43.313Z,47.409384
2019-04-26T09:16:50.420Z,47.409438
2019-04-26T09:17:54.319Z,47.409417
2019-04-26T09:18:59.583Z,47.409399
2019-04-26T09:20:07.684Z,47.409410
2019-04-26T09:21:13.422Z,47.409405
2019-04-26T09:22:22.529Z,47.409347
2019-04-26T09:23:39.362Z,47.409317
2019-04-26T09:24:35.355Z,47.409437
2019-04-26T09:25:39.301Z,47.409457
2019-04-26T09:26:46.257Z,47.409476
2019-04-26T09:27:50.313Z,47.409479
2019-04-26T09:28:56.588Z,47.409417
2019-04-26T09:30:00.642Z,47.409310
2019-04-26T09:31:07.364Z,47.409417
2019-04-26T09:32:10.281Z,47.409384
2019-04-26T09:33:13.367Z,47.409352
2019-04-26T09:34:16.346Z,47.409311
2019-04-26T09:35:19.309Z,47.409306
2019-04-26T09:36:22.343Z,47.409417
2019-04-26T09:37:25.295Z,47.409566
2019-04-26T09:38:28.353Z,47.409368
2019-04-26T09:39:31.300Z,47.409237
2019-04-26T09:40:34.329Z,47.409294
2019-04-26T09:41:37.323Z,47.409197
2019-04-26T09:42:41.048Z,47.409256
2019-04-26T09:43:44.302Z,47.409266
2019-04-26T09:44:46.345Z,47.409247
2019-04-26T09:45:49.327Z,47.409288
2019-04-26T09:46:52.889Z,47.409461
2019-04-26T09:47:57.306Z,47.409328
2019-04-26T09:49:03.056Z,47.409325
2019-04-26T09:50:11.268Z,47.409258
2019-04-26T09:51:16.276Z,47.409208
2019-04-26T09:52:19.340Z,47.409288
2019-04-26T09:53:22.281Z,47.409334
2019-04-26T09:54:25.333Z,47.409423
2019-04-26T09:55:35.285Z,47.409521
2019-04-26T09:56:36.360Z,47.409350
2019-04-26T09:57:39.348Z,47.409332
2019-04-26T09:58:41.328Z,47.409296
2019-04-26T09:59:44.316Z,47.409381
2019-04-26T10:00:48.617Z,47.409278
2019-04-26T10:01:55.352Z,47.409324
2019-04-26T10:03:01.322Z,47.409302
2019-04-26T10:04:04.325Z,47.409382
2019-04-26T10:05:08.144Z,47.409365
2019-04-26T10:06:14.308Z,47.409432
2019-04-26T10:07:17.443Z,47.409438
2019-04-26T10:08:20.347Z,47.409507
2019-04-26T10:09:23.381Z,47.409462
2019-04-26T10:10:26.297Z,47.409490
2019-04-26T10:11:29.322Z,47.409408
2019-04-26T10:12:32.348Z,47.409531
2019-04-26T10:13:35.358Z,47.409550
2019-04-26T10:14:38.292Z,47.409453
2019-04-26T10:15:41.339Z,47.409436
2019-04-26T10:16:44.317Z,47.409521
2019-04-26T10:17:50.149Z,47.409630
2019-04-26T10:18:54.448Z,47.409483
2019-04-26T10:19:57.329Z,47.409475
2019-04-26T10:21:00.342Z,47.409542
2019-04-26T10:22:05.332Z,47.409465
2019-04-26T10:23:08.324Z,47.409386
2019-04-26T10:24:11.315Z,47.409439
2019-04-26T10:25:16.899Z,47.409353
2019-04-26T10:26:23.314Z,47.409505
2019-04-26T10:27:28.316Z,47.409495
2019-04-26T10:28:31.314Z,47.409328
2019-04-26T10:29:33.314Z,47.409362
2019-04-26T10:30:38.358Z,47.409252
2019-04-26T10:31:43.331Z,47.409244
2019-04-26T10:32:46.353Z,47.409290
2019-04-26T10:33:49.299Z,47.409426
2019-04-26T10:34:52.331Z,47.409293
2019-04-26T10:35:56.617Z,47.409323
2019-04-26T10:37:05.518Z,47.409168
2019-04-26T10:38:09.345Z,47.409216
2019-04-26T10:39:12.298Z,47.409233
2019-04-26T10:40:15.340Z,47.409288
2019-04-26T10:41:18.277Z,47.409277
2019-04-26T10:42:21.312Z,47.409282
2019-04-26T10:43:24.320Z,47.409296
2019-04-26T10:44:27.304Z,47.409287
2019-04-26T10:45:30.290Z,47.409171
2019-04-26T10:46:33.324Z,47.409054
2019-04-26T10:47:38.416Z,47.409157
2019-04-26T10:48:45.598Z,47.409321
2019-04-26T10:49:50.297Z,47.409379
2019-04-26T10:50:53.320Z,47.409205
2019-04-26T10:51:56.323Z,47.409265
2019-04-26T10:52:59.313Z,47.409395
2019-04-26T10:54:01.644Z,47.409380
2019-04-26T10:55:08.309Z,47.409312
2019-04-26T10:56:11.350Z,47.409304
2019-04-26T10:57:14.278Z,47.409341
2019-04-26T10:58:17.337Z,47.409278
2019-04-26T10:59:22.645Z,47.409213
2019-04-26T11:00:26.340Z,47.409279
2019-04-26T11:01:29.278Z,47.409375
2019-04-26T11:02:32.291Z,47.409458
2019-04-26T11:03:35.335Z,47.409261
2019-04-26T11:04:41.565Z,47.409301
2019-04-26T11:05:49.335Z,47.409258
2019-04-26T11:06:54.292Z,47.409177
2019-04-26T11:07:57.341Z,47.409346
2019-04-26T11:08:59.337Z,47.409324
2019-04-26T11:10:02.989Z,47.409343
2019-04-26T11:11:06.270Z,47.409258
2019-04-26T11:12:09.368Z,47.409227
2019-04-26T11:13:11.317Z,47.409365
2019-04-26T11:14:18.347Z,47.409442
2019-04-26T11:15:22.312Z,47.409340
2019-04-26T11:16:25.281Z,47.409339
2019-04-26T11:17:28.321Z,47.409362
2019-04-26T11:18:31.296Z,47.409332
2019-04-26T11:19:35.525Z,47.409354
2019-04-26T11:20:41.362Z,47.409361
2019-04-26T11:21:47.324Z,47.409354
2019-04-26T11:22:50.326Z,47.409395
2019-04-26T11:23:53.322Z,47.409376
2019-04-26T11:24:56.304Z,47.409367
2019-04-26T11:26:01.703Z,47.409370
2019-04-26T11:27:09.702Z,47.409350
2019-04-26T11:28:17.110Z,47.409374
2019-04-26T11:29:24.992Z,47.409341
2019-04-26T11:30:30.344Z,47.409368
2019-04-26T11:31:33.296Z,47.409381
2019-04-26T11:32:36.867Z,47.409316
2019-04-26T11:33:44.935Z,47.409422
2019-04-26T11:34:48.315Z,47.409377
2019-04-26T11:35:51.362Z,47.409389
2019-04-26T11:36:54.298Z,47.409449
2019-04-26T11:37:57.335Z,47.409415
2019-04-26T11:39:01.381Z,47.409406
2019-04-26T11:40:10.205Z,47.409391
2019-04-26T11:41:15.352Z,47.409331
2019-04-26T11:42:18.331Z,47.409340
2019-04-26T11:43:21.330Z,47.409357
2019-04-26T11:44:27.451Z,47.409332
2019-04-26T11:45:31.370Z,47.409351
2019-04-26T11:46:44.162Z,47.409377
2019-04-26T11:47:54.309Z,47.409363
2019-04-26T11:48:58.958Z,47.409360
2019-04-26T11:49:58.408Z,47.409342
2019-04-26T11:51:01.295Z,47.409323
2019-04-26T11:52:04.304Z,47.409227
2019-04-26T11:53:10.200Z,47.409309
2019-04-26T11:54:17.127Z,47.409317
2019-04-26T11:55:25.372Z,47.409399
2019-04-26T11:56:30.316Z,47.409349
2019-04-26T11:57:33.340Z,47.409332
2019-04-26T11:58:36.292Z,47.409383
2019-04-26T11:59:39.329Z,47.409339
2019-04-26T12:00:42.305Z,47.409384
2019-04-26T12:01:45.347Z,47.409373
2019-04-26T12:02:50.793Z,47.409298
2019-04-26T12:03:55.691Z,47.409317
2019-04-26T12:05:02.286Z,47.409380